createdAt,value
2023-04-13T00:00:21.583Z,78.10
2023-04-13T00:02:54.040Z,77.90
2023-04-13T00:05:22.703Z,77.80
2023-04-13T00:07:50.826Z,78.50
2023-04-13T00:10:20.630Z,79.10
2023-04-13T00:12:50.929Z,78.60
2023-04-13T00:15:20.167Z,78.70
2023-04-13T00:17:48.675Z,79.20
2023-04-13T00:20:17.695Z,79.20
2023-04-13T00:22:46.732Z,79.10
2023-04-13T00:25:16.272Z,79.70
2023-04-13T00:27:44.766Z,80.00
2023-04-13T00:30:15.871Z,80.20
2023-04-13T00:32:45.241Z,80.70
2023-04-13T00:35:16.622Z,80.50
2023-04-13T00:37:45.003Z,80.80
2023-04-13T00:40:15.928Z,80.70
2023-04-13T00:42:44.973Z,81.30
2023-04-13T00:45:14.851Z,81.40
2023-04-13T00:47:46.613Z,81.70
2023-04-13T00:50:15.444Z,81.50
2023-04-13T00:52:43.616Z,81.80
2023-04-13T00:55:13.095Z,81.70
2023-04-13T00:57:41.908Z,81.60
2023-04-13T01:00:10.805Z,82.10
2023-04-13T01:02:42.685Z,82.20
2023-04-13T01:05:12.694Z,82.50
2023-04-13T01:07:52.013Z,82.30
2023-04-13T01:10:26.725Z,82.90
2023-04-13T01:13:03.066Z,82.90
2023-04-13T01:15:34.701Z,83.20
2023-04-13T01:18:09.960Z,83.10
2023-04-13T01:20:40.336Z,83.40
2023-04-13T01:23:10.646Z,83.40
2023-04-13T01:25:41.989Z,83.90
2023-04-13T01:28:15.967Z,84.10
2023-04-13T01:30:45.080Z,85.00
2023-04-13T01:33:13.845Z,84.00
2023-04-13T01:35:42.247Z,84.20
2023-04-13T01:38:12.261Z,84.20
2023-04-13T01:40:42.147Z,84.50
2023-04-13T01:43:11.930Z,84.50
2023-04-13T01:45:47.109Z,84.70
2023-04-13T01:48:21.311Z,85.00
2023-04-13T01:50:54.695Z,85.10
2023-04-13T01:53:34.432Z,85.20
2023-04-13T01:56:05.027Z,85.70
2023-04-13T01:58:37.753Z,85.30
2023-04-13T02:01:08.009Z,85.80
2023-04-13T02:03:38.559Z,85.90
2023-04-13T02:06:07.444Z,85.50
2023-04-13T02:08:37.106Z,85.30
2023-04-13T02:11:05.458Z,85.30
2023-04-13T02:13:35.281Z,85.50
2023-04-13T02:16:03.559Z,85.60
2023-04-13T02:18:32.008Z,85.70
2023-04-13T02:21:02.090Z,85.70
2023-04-13T02:23:31.379Z,85.80
2023-04-13T02:25:59.394Z,85.90
2023-04-13T02:28:27.602Z,85.50
2023-04-13T02:30:59.784Z,85.70
2023-04-13T02:33:30.173Z,85.80
2023-04-13T02:35:58.449Z,86.00
2023-04-13T02:38:26.662Z,85.70
2023-04-13T02:40:56.441Z,86.20
2023-04-13T02:43:26.353Z,86.30
2023-04-13T02:45:55.880Z,86.40
2023-04-13T02:48:24.086Z,86.80
2023-04-13T02:50:52.335Z,86.60
2023-04-13T02:53:20.953Z,86.90
2023-04-13T02:55:50.284Z,87.30
2023-04-13T02:58:20.122Z,86.80
2023-04-13T03:00:49.952Z,87.00
2023-04-13T03:03:20.330Z,87.20
2023-04-13T03:05:50.698Z,87.00
2023-04-13T03:08:18.746Z,87.00
2023-04-13T03:10:46.605Z,86.90
2023-04-13T03:13:14.868Z,86.90
2023-04-13T03:15:42.680Z,87.00
2023-04-13T03:18:10.595Z,87.10
2023-04-13T03:20:39.933Z,88.20
2023-04-13T03:23:07.780Z,87.00
2023-04-13T03:25:35.696Z,87.00
2023-04-13T03:28:03.562Z,86.80
2023-04-13T03:30:31.464Z,87.00
2023-04-13T03:32:59.358Z,86.90
2023-04-13T03:35:27.251Z,86.80
2023-04-13T03:37:56.520Z,86.90
2023-04-13T03:40:24.461Z,86.80
2023-04-13T03:42:52.351Z,86.80
2023-04-13T03:45:20.404Z,86.80
2023-04-13T03:47:48.714Z,87.00
2023-04-13T03:50:16.986Z,87.00
2023-04-13T03:52:45.017Z,87.00
2023-04-13T03:55:14.728Z,87.00
2023-04-13T03:57:43.461Z,87.10
2023-04-13T04:00:14.197Z,87.30
2023-04-13T04:02:42.472Z,87.50
2023-04-13T04:05:11.480Z,87.30
2023-04-13T04:07:39.311Z,87.40
2023-04-13T04:10:09.049Z,87.40
2023-04-13T04:12:38.489Z,87.40
2023-04-13T04:15:07.752Z,87.50
2023-04-13T04:17:37.382Z,87.50
2023-04-13T04:20:07.930Z,87.20
2023-04-13T04:22:36.596Z,87.50
2023-04-13T04:25:04.787Z,87.40
2023-04-13T04:27:37.889Z,87.40
2023-04-13T04:30:10.885Z,88.10
2023-04-13T04:32:40.697Z,88.60
2023-04-13T04:35:09.727Z,88.50
2023-04-13T04:37:38.848Z,88.60
2023-04-13T04:40:09.572Z,88.80
2023-04-13T04:42:38.357Z,88.90
2023-04-13T04:45:08.993Z,88.60
2023-04-13T04:47:41.852Z,89.20
2023-04-13T04:50:11.082Z,89.00
2023-04-13T04:52:38.974Z,89.10
2023-04-13T04:55:07.861Z,89.10
2023-04-13T04:57:35.893Z,89.40
2023-04-13T05:00:09.731Z,89.30
2023-04-13T05:02:39.021Z,90.00
2023-04-13T05:05:09.040Z,89.50
2023-04-13T05:07:38.051Z,89.40
2023-04-13T05:10:07.118Z,89.40
2023-04-13T05:12:37.210Z,89.50
2023-04-13T05:15:06.390Z,89.20
2023-04-13T05:17:34.685Z,89.50
2023-04-13T05:20:06.580Z,89.20
2023-04-13T05:22:34.674Z,89.50
2023-04-13T05:25:02.448Z,89.60
2023-04-13T05:27:30.364Z,88.60
2023-04-13T05:29:58.933Z,89.70
2023-04-13T05:32:26.864Z,89.30
2023-04-13T05:34:54.697Z,89.70
2023-04-13T05:37:23.821Z,89.50
2023-04-13T05:39:51.859Z,88.60
2023-04-13T05:42:19.959Z,88.40
2023-04-13T05:44:47.823Z,88.30
2023-04-13T05:47:15.803Z,88.30
2023-04-13T05:49:43.760Z,88.30
2023-04-13T05:52:12.955Z,88.00
2023-04-13T05:54:42.243Z,88.10
2023-04-13T05:57:10.449Z,88.60
2023-04-13T05:59:38.498Z,88.50
2023-04-13T06:02:07.057Z,88.90
2023-04-13T06:04:36.268Z,89.20
2023-04-13T06:07:04.358Z,89.10
2023-04-13T06:09:32.237Z,89.20
2023-04-13T06:12:02.514Z,89.20
2023-04-13T06:14:30.663Z,89.60
2023-04-13T06:16:58.606Z,89.60
2023-04-13T06:19:28.899Z,89.50
2023-04-13T06:21:57.053Z,89.70
2023-04-13T06:24:24.952Z,89.80
2023-04-13T06:26:53.036Z,90.00
2023-04-13T06:29:22.298Z,89.70
2023-04-13T06:31:50.812Z,90.00
2023-04-13T06:34:19.245Z,89.70
2023-04-13T06:36:47.929Z,89.70
2023-04-13T06:39:15.832Z,89.70
2023-04-13T06:41:44.414Z,89.60
2023-04-13T06:44:12.459Z,89.90
2023-04-13T06:46:41.636Z,89.90
2023-04-13T06:49:09.868Z,90.00
2023-04-13T06:51:37.714Z,90.00
2023-04-13T06:54:06.039Z,89.90
2023-04-13T06:56:34.081Z,90.00
2023-04-13T06:59:03.109Z,90.10
2023-04-13T07:01:31.278Z,90.20
2023-04-13T07:04:00.540Z,90.10
2023-04-13T07:06:28.917Z,90.20
2023-04-13T07:08:56.884Z,90.20
2023-04-13T07:11:26.241Z,90.20
2023-04-13T07:13:54.178Z,90.20
2023-04-13T07:16:22.072Z,90.10
2023-04-13T07:18:50.824Z,90.20
2023-04-13T07:21:20.162Z,90.20
2023-04-13T07:23:48.793Z,90.30
2023-04-13T07:26:18.257Z,90.10
2023-04-13T07:28:46.159Z,89.70
2023-04-13T07:31:14.180Z,90.10
2023-04-13T07:33:42.287Z,90.30
2023-04-13T07:36:11.620Z,90.30
2023-04-13T07:38:41.304Z,90.30
2023-04-13T07:41:09.745Z,90.80
2023-04-13T07:43:37.752Z,90.00
2023-04-13T07:46:11.667Z,89.90
2023-04-13T07:48:39.569Z,90.00
2023-04-13T07:51:08.210Z,90.10
2023-04-13T07:53:36.476Z,90.30
2023-04-13T07:56:06.872Z,90.30
2023-04-13T07:58:34.725Z,90.60
2023-04-13T08:01:03.190Z,90.70
2023-04-13T08:03:32.400Z,90.70
2023-04-13T08:06:00.492Z,90.90
2023-04-13T08:08:29.396Z,90.90
2023-04-13T08:10:57.523Z,90.90
2023-04-13T08:13:27.755Z,91.00
2023-04-13T08:15:57.287Z,91.50
2023-04-13T08:18:26.779Z,91.30
2023-04-13T08:20:55.704Z,91.50
2023-04-13T08:23:23.922Z,91.50
2023-04-13T08:25:52.344Z,91.50
2023-04-13T08:28:20.242Z,91.30
2023-04-13T08:30:50.157Z,90.90
2023-04-13T08:33:18.453Z,90.90
2023-04-13T08:35:46.219Z,91.00
2023-04-13T08:38:14.145Z,90.90
2023-04-13T08:40:42.012Z,90.50
2023-04-13T08:43:10.871Z,90.00
2023-04-13T08:45:42.886Z,90.10
2023-04-13T08:48:14.734Z,89.00
2023-04-13T08:50:44.650Z,88.40
2023-04-13T08:53:12.763Z,87.70
2023-04-13T08:55:46.164Z,86.70
2023-04-13T08:58:15.076Z,86.70
2023-04-13T09:00:44.060Z,86.70
2023-04-13T09:03:15.255Z,86.90
2023-04-13T09:05:43.935Z,86.80
2023-04-13T09:08:14.099Z,87.20
2023-04-13T09:10:42.397Z,86.00
2023-04-13T09:13:10.749Z,85.70
2023-04-13T09:15:38.969Z,85.70
2023-04-13T09:18:12.963Z,86.30
2023-04-13T09:20:42.465Z,85.70
2023-04-13T09:23:15.988Z,85.60
2023-04-13T09:25:45.310Z,85.20
2023-04-13T09:28:21.506Z,84.40
2023-04-13T09:30:50.210Z,84.30
2023-04-13T09:33:18.761Z,84.40
2023-04-13T09:35:47.988Z,84.60
2023-04-13T09:38:16.943Z,84.00
2023-04-13T09:40:54.205Z,84.10
2023-04-13T09:43:22.185Z,83.20
2023-04-13T09:45:51.284Z,83.10
2023-04-13T09:48:21.224Z,83.00
2023-04-13T09:51:01.296Z,83.50
2023-04-13T09:53:40.578Z,83.10
2023-04-13T09:56:08.780Z,83.20
2023-04-13T09:58:38.804Z,83.50
2023-04-13T10:01:06.810Z,83.10
2023-04-13T10:03:36.109Z,82.80
2023-04-13T10:06:07.654Z,82.90
2023-04-13T10:08:38.635Z,82.20
2023-04-13T10:11:11.713Z,81.60
2023-04-13T10:13:49.538Z,80.70
2023-04-13T10:16:37.777Z,80.90
2023-04-13T10:19:11.118Z,80.70
2023-04-13T10:21:41.798Z,81.00
2023-04-13T10:24:13.834Z,80.50
2023-04-13T10:26:44.088Z,80.50
2023-04-13T10:29:14.679Z,80.70
2023-04-13T10:31:47.134Z,80.50
2023-04-13T10:34:25.327Z,80.20
2023-04-13T10:36:57.800Z,79.70
2023-04-13T10:39:27.690Z,79.60
2023-04-13T10:42:02.807Z,79.10
2023-04-13T10:44:42.806Z,78.50
2023-04-13T10:47:11.245Z,78.60
2023-04-13T10:49:39.649Z,78.50
2023-04-13T10:52:10.513Z,78.50
2023-04-13T10:54:39.654Z,78.70
2023-04-13T10:57:09.064Z,78.20
2023-04-13T10:59:53.570Z,78.20
2023-04-13T11:02:27.018Z,78.10
2023-04-13T11:04:55.226Z,78.20
2023-04-13T11:07:25.920Z,78.80
2023-04-13T11:10:02.997Z,78.90
2023-04-13T11:12:31.599Z,79.50
2023-04-13T11:14:59.912Z,79.00
2023-04-13T11:17:28.034Z,79.00
2023-04-13T11:19:57.542Z,78.10
2023-04-13T11:22:28.691Z,77.90
2023-04-13T11:25:08.792Z,77.00
2023-04-13T11:27:37.693Z,76.30
2023-04-13T11:30:07.354Z,76.80
2023-04-13T11:32:35.818Z,76.30
2023-04-13T11:35:08.061Z,76.40
2023-04-13T11:37:41.549Z,76.30
2023-04-13T11:40:17.214Z,77.00
2023-04-13T11:42:47.844Z,77.20
2023-04-13T11:45:17.375Z,77.30
2023-04-13T11:47:48.703Z,77.10
2023-04-13T11:50:17.582Z,76.40
2023-04-13T11:52:48.545Z,76.50
2023-04-13T11:55:23.102Z,75.40
2023-04-13T11:57:52.148Z,75.90
2023-04-13T12:00:24.285Z,75.80
2023-04-13T12:03:01.902Z,75.00
2023-04-13T12:05:33.541Z,74.10
2023-04-13T12:08:04.892Z,73.60
2023-04-13T12:10:40.746Z,73.40
2023-04-13T12:16:05.363Z,73.80
2023-04-13T12:18:44.333Z,73.10
2023-04-13T12:21:16.367Z,72.60
2023-04-13T12:23:54.640Z,73.20
2023-04-13T12:28:57.937Z,72.50
2023-04-13T12:31:26.377Z,71.70
2023-04-13T12:33:54.200Z,71.80
2023-04-13T12:36:22.073Z,72.40
2023-04-13T12:38:50.822Z,72.90
2023-04-13T12:41:19.975Z,73.50
2023-04-13T12:43:47.953Z,73.20
2023-04-13T12:46:15.966Z,72.90
2023-04-13T12:48:44.173Z,73.60
2023-04-13T12:51:12.617Z,75.40
2023-04-13T12:53:41.307Z,75.30
2023-04-13T12:56:09.859Z,75.90
2023-04-13T12:58:39.087Z,75.40
2023-04-13T13:01:07.090Z,73.60
2023-04-13T13:03:36.578Z,73.40
2023-04-13T13:06:05.552Z,72.70
2023-04-13T13:08:36.051Z,72.60
2023-04-13T13:11:05.830Z,72.90
2023-04-13T13:13:33.647Z,72.70
2023-04-13T13:16:03.527Z,72.10
2023-04-13T13:18:42.763Z,71.80
2023-04-13T13:21:17.663Z,71.00
2023-04-13T13:23:45.993Z,70.60
2023-04-13T13:28:46.127Z,70.30
2023-04-13T13:31:15.486Z,70.60
2023-04-13T13:33:43.721Z,69.80
2023-04-13T13:36:13.908Z,69.90
2023-04-13T13:38:43.302Z,70.00
2023-04-13T13:41:11.726Z,68.90
2023-04-13T13:43:40.324Z,68.60
2023-04-13T13:46:08.257Z,68.50
2023-04-13T13:48:37.558Z,68.40
2023-04-13T13:51:07.471Z,68.50
2023-04-13T13:53:35.861Z,69.00
2023-04-13T13:56:04.455Z,68.60
2023-04-13T13:58:32.295Z,66.40
2023-04-13T14:01:00.198Z,64.80
2023-04-13T14:03:28.134Z,64.50
2023-04-13T14:05:57.524Z,64.50
2023-04-13T14:08:25.645Z,64.70
2023-04-13T14:10:53.645Z,63.90
2023-04-13T14:13:21.487Z,62.00
2023-04-13T14:15:49.884Z,62.00
2023-04-13T14:18:17.832Z,62.30
2023-04-13T14:20:45.910Z,61.90
2023-04-13T14:23:15.432Z,62.20
2023-04-13T14:25:43.680Z,61.10
2023-04-13T14:28:11.922Z,61.10
2023-04-13T14:30:40.491Z,61.50
2023-04-13T14:33:08.992Z,59.80
2023-04-13T14:35:38.708Z,59.30
2023-04-13T14:38:08.185Z,59.90
2023-04-13T14:40:37.350Z,60.00
2023-04-13T14:43:05.125Z,59.80
2023-04-13T14:45:33.082Z,60.10
2023-04-13T14:48:00.991Z,61.50
2023-04-13T14:50:28.882Z,62.10
2023-04-13T14:52:57.295Z,61.60
2023-04-13T14:55:25.178Z,61.60
2023-04-13T14:57:55.468Z,60.40
2023-04-13T15:00:38.356Z,60.30
2023-04-13T15:03:07.126Z,60.40
2023-04-13T15:05:39.236Z,60.20
2023-04-13T15:08:08.324Z,58.70
2023-04-13T15:10:36.359Z,57.80
2023-04-13T15:13:07.113Z,58.80
2023-04-13T15:15:36.893Z,58.60
2023-04-13T15:18:05.720Z,57.90
2023-04-13T15:20:33.733Z,56.10
2023-04-13T15:23:01.741Z,56.70
2023-04-13T15:25:29.665Z,55.90
2023-04-13T15:27:59.240Z,55.90
2023-04-13T15:30:29.523Z,56.80
2023-04-13T15:32:58.731Z,55.60
2023-04-13T15:35:27.404Z,55.60
2023-04-13T15:37:55.935Z,56.10
2023-04-13T15:40:25.712Z,55.90
2023-04-13T15:42:53.672Z,55.60
2023-04-13T15:45:21.864Z,54.70
2023-04-13T15:47:51.585Z,54.60
2023-04-13T15:50:19.994Z,53.40
2023-04-13T15:52:47.988Z,53.70
2023-04-13T15:55:15.964Z,53.40
2023-04-13T15:57:44.153Z,53.30
2023-04-13T16:00:16.519Z,52.60
2023-04-13T16:02:44.445Z,52.70
2023-04-13T16:05:14.140Z,50.90
2023-04-13T16:07:42.043Z,50.70
2023-04-13T16:10:15.916Z,50.60
2023-04-13T16:12:45.327Z,49.00
2023-04-13T16:15:13.961Z,49.90
2023-04-13T16:17:44.198Z,50.00
2023-04-13T16:20:21.034Z,49.60
2023-04-13T16:22:52.988Z,48.50
2023-04-13T16:25:21.195Z,47.60
2023-04-13T16:27:49.739Z,47.60
2023-04-13T16:30:20.729Z,46.90
2023-04-13T16:32:51.052Z,47.60
2023-04-13T16:35:20.797Z,46.50
2023-04-13T16:37:48.954Z,45.70
2023-04-13T16:40:17.248Z,45.80
2023-04-13T16:42:46.071Z,45.70
2023-04-13T16:45:15.233Z,45.90
2023-04-13T16:47:43.962Z,46.00
2023-04-13T16:50:13.374Z,45.90
2023-04-13T16:52:43.006Z,46.20
2023-04-13T16:55:14.356Z,46.40
2023-04-13T16:57:43.379Z,46.80
2023-04-13T17:00:12.769Z,47.40
2023-04-13T17:02:41.865Z,47.40
2023-04-13T17:05:11.372Z,47.60
2023-04-13T17:07:40.425Z,47.80
2023-04-13T17:10:12.375Z,48.30
2023-04-13T17:12:40.937Z,48.10
2023-04-13T17:15:10.592Z,48.30
2023-04-13T17:17:38.826Z,48.40
2023-04-13T17:20:08.256Z,48.60
2023-04-13T17:22:36.073Z,48.60
2023-04-13T17:25:03.957Z,48.20
2023-04-13T17:27:33.195Z,48.30
2023-04-13T17:30:01.202Z,48.20
2023-04-13T17:32:29.174Z,48.00
2023-04-13T17:34:57.501Z,48.20
2023-04-13T17:37:25.354Z,46.70
2023-04-13T17:39:53.136Z,48.10
2023-04-13T17:42:21.054Z,47.80
2023-04-13T17:44:50.924Z,48.30
2023-04-13T17:47:18.788Z,48.30
2023-04-13T17:49:46.637Z,48.60
2023-04-13T17:52:14.457Z,48.90
2023-04-13T17:54:42.369Z,48.70
2023-04-13T17:57:14.038Z,49.30
2023-04-13T17:59:41.921Z,48.30
2023-04-13T18:02:11.183Z,48.50
2023-04-13T18:04:39.153Z,48.30
2023-04-13T18:07:07.311Z,48.80
2023-04-13T18:09:35.269Z,48.90
2023-04-13T18:12:03.229Z,48.90
2023-04-13T18:14:31.115Z,49.10
2023-04-13T18:16:59.240Z,49.20
2023-04-13T18:19:30.451Z,49.30
2023-04-13T18:21:58.390Z,49.50
2023-04-13T18:24:26.287Z,49.90
2023-04-13T18:26:54.081Z,50.90
2023-04-13T18:29:21.921Z,51.40
2023-04-13T18:31:51.370Z,51.70
2023-04-13T18:34:19.325Z,52.20
2023-04-13T18:36:49.062Z,52.40
2023-04-13T18:39:17.821Z,52.70
2023-04-13T18:41:46.039Z,53.50
2023-04-13T18:44:14.153Z,53.40
2023-04-13T18:46:42.121Z,53.80
2023-04-13T18:49:09.879Z,54.10
2023-04-13T18:51:37.651Z,54.40
2023-04-13T18:54:06.913Z,54.60
2023-04-13T18:56:34.798Z,54.80
2023-04-13T18:59:02.623Z,54.90
2023-04-13T19:01:30.841Z,55.20
2023-04-13T19:03:58.956Z,55.30
2023-04-13T19:06:27.735Z,55.50
2023-04-13T19:08:55.581Z,55.20
2023-04-13T19:11:27.674Z,55.40
2023-04-13T19:13:55.920Z,55.80
2023-04-13T19:16:24.270Z,55.80
2023-04-13T19:18:52.094Z,56.20
2023-04-13T19:21:23.554Z,56.30
2023-04-13T19:23:51.470Z,56.40
2023-04-13T19:26:19.271Z,56.80
2023-04-13T19:28:49.107Z,57.10
2023-04-13T19:31:17.251Z,57.10
2023-04-13T19:33:46.509Z,57.20
2023-04-13T19:36:14.554Z,57.10
2023-04-13T19:38:44.944Z,57.40
2023-04-13T19:41:13.518Z,57.50
2023-04-13T19:43:41.332Z,57.90
2023-04-13T19:46:10.796Z,57.80
2023-04-13T19:48:38.708Z,57.60
2023-04-13T19:51:06.734Z,57.40
2023-04-13T19:53:36.155Z,57.70
2023-04-13T19:56:05.349Z,58.20
2023-04-13T19:58:33.368Z,57.90
2023-04-13T20:01:01.966Z,58.10
2023-04-13T20:03:31.586Z,58.40
2023-04-13T20:05:59.680Z,58.50
2023-04-13T20:08:27.553Z,58.60
2023-04-13T20:10:55.371Z,58.60
2023-04-13T20:13:23.184Z,58.60
2023-04-13T20:15:51.470Z,58.80
2023-04-13T20:18:19.327Z,58.80
2023-04-13T20:20:49.800Z,58.90
2023-04-13T20:23:17.763Z,59.30
2023-04-13T20:25:45.618Z,58.60
2023-04-13T20:28:13.483Z,59.00
2023-04-13T20:30:41.262Z,59.10
2023-04-13T20:33:09.275Z,59.20
2023-04-13T20:35:37.147Z,59.70
2023-04-13T20:38:06.494Z,59.70
2023-04-13T20:40:36.087Z,59.80
2023-04-13T20:43:06.138Z,60.50
2023-04-13T20:45:36.195Z,60.70
2023-04-13T20:48:48.210Z,60.50
2023-04-13T20:50:53.844Z,60.90
2023-04-13T20:53:24.584Z,61.10
2023-04-13T20:55:52.531Z,60.80
2023-04-13T20:58:20.339Z,61.40
2023-04-13T21:00:48.592Z,61.30
2023-04-13T21:03:16.627Z,61.30
2023-04-13T21:05:44.766Z,61.50
2023-04-13T21:08:13.225Z,61.60
2023-04-13T21:10:43.549Z,61.80
2023-04-13T21:13:12.190Z,62.10
2023-04-13T21:15:40.053Z,61.60
2023-04-13T21:18:07.944Z,62.00
2023-04-13T21:20:35.882Z,62.20
2023-04-13T21:23:03.768Z,62.50
2023-04-13T21:25:31.625Z,62.70
2023-04-13T21:28:02.739Z,62.90
2023-04-13T21:30:30.607Z,63.00
2023-04-13T21:32:58.613Z,63.10
2023-04-13T21:35:26.513Z,63.10
2023-04-13T21:37:54.319Z,63.50
2023-04-13T21:40:24.112Z,63.80
2023-04-13T21:42:52.205Z,63.80
2023-04-13T21:45:21.586Z,63.70
2023-04-13T21:47:49.950Z,63.90
2023-04-13T21:50:17.871Z,64.10
2023-04-13T21:52:45.879Z,64.10
2023-04-13T21:55:17.886Z,64.20
2023-04-13T21:57:45.988Z,64.20
2023-04-13T22:00:14.903Z,64.50
2023-04-13T22:02:44.582Z,64.40
2023-04-13T22:05:13.374Z,65.90
2023-04-13T22:07:43.318Z,64.70
2023-04-13T22:10:12.517Z,64.80
2023-04-13T22:12:40.373Z,64.80
2023-04-13T22:15:09.633Z,65.10
2023-04-13T22:17:37.541Z,65.10
2023-04-13T22:20:08.142Z,65.20
2023-04-13T22:22:36.042Z,65.40
2023-04-13T22:25:03.952Z,65.30
2023-04-13T22:27:31.751Z,65.60
2023-04-13T22:29:59.666Z,65.80
2023-04-13T22:32:28.935Z,66.00
2023-04-13T22:34:58.302Z,66.20
2023-04-13T22:37:30.990Z,65.90
2023-04-13T22:40:02.309Z,67.10
2023-04-13T22:42:30.596Z,66.50
2023-04-13T22:44:58.488Z,66.20
2023-04-13T22:47:26.538Z,66.20
2023-04-13T22:49:56.362Z,66.10
2023-04-13T22:52:27.065Z,66.60
2023-04-13T22:54:57.520Z,65.90
2023-04-13T22:57:25.623Z,66.70
2023-04-13T22:59:55.333Z,66.70
2023-04-13T23:02:23.232Z,66.60
2023-04-13T23:04:51.426Z,66.80
2023-04-13T23:07:19.311Z,66.80
2023-04-13T23:09:47.620Z,67.00
2023-04-13T23:12:16.947Z,67.30
2023-04-13T23:14:45.014Z,67.50
2023-04-13T23:17:12.871Z,67.90
2023-04-13T23:19:40.776Z,67.60
2023-04-13T23:22:08.550Z,67.70
2023-04-13T23:24:36.311Z,67.70
2023-04-13T23:27:04.329Z,67.70
2023-04-13T23:29:33.519Z,67.80
2023-04-13T23:32:01.431Z,67.90
2023-04-13T23:34:29.264Z,68.00
2023-04-13T23:36:57.454Z,68.00
2023-04-13T23:39:25.295Z,68.10
2023-04-13T23:41:53.122Z,68.00
2023-04-13T23:44:21.041Z,67.80
2023-04-13T23:46:51.755Z,67.80
2023-04-13T23:49:19.749Z,67.90
2023-04-13T23:51:47.593Z,68.20
2023-04-13T23:54:15.411Z,68.60
2023-04-13T23:56:43.362Z,68.60
2023-04-13T23:59:11.391Z,68.40
